createdAt,value
2017-02-24T00:00:44.683Z,15.16
2017-02-24T00:01:54.014Z,15.19
2017-02-24T00:03:03.770Z,15.19
2017-02-24T00:04:13.558Z,15.14
2017-02-24T00:05:23.307Z,15.14
2017-02-24T00:06:33.129Z,15.2
2017-02-24T00:07:43.994Z,15.1
2017-02-24T00:08:53.307Z,15.07
2017-02-24T00:10:02.641Z,15.03
2017-02-24T00:11:11.960Z,15.11
2017-02-24T00:12:21.327Z,15.07
2017-02-24T00:13:30.640Z,15.03
2017-02-24T00:14:39.949Z,15.13
2017-02-24T00:15:49.286Z,15.2
2017-02-24T00:16:58.604Z,15.16
2017-02-24T00:18:08.431Z,15.25
2017-02-24T00:19:18.189Z,15.14
2017-02-24T00:20:27.527Z,15.32
2017-02-24T00:21:37.724Z,15.34
2017-02-24T00:22:47.045Z,15.32
2017-02-24T00:23:56.407Z,15.38
2017-02-24T00:25:05.772Z,15.43
2017-02-24T00:26:15.104Z,15.44
2017-02-24T00:27:25.310Z,15.46
2017-02-24T00:28:35.059Z,15.46
2017-02-24T00:29:44.430Z,15.49
2017-02-24T00:30:54.192Z,15.47
2017-02-24T00:32:03.930Z,15.57
2017-02-24T00:33:13.268Z,15.54
2017-02-24T00:34:22.596Z,15.6
2017-02-24T00:35:31.986Z,15.54
2017-02-24T00:36:41.331Z,15.6
2017-02-24T00:37:50.667Z,15.64
2017-02-24T00:39:00.434Z,15.62
2017-02-24T00:40:09.779Z,15.67
2017-02-24T00:41:19.587Z,15.64
2017-02-24T00:42:29.351Z,15.62
2017-02-24T00:43:39.118Z,15.67
2017-02-24T00:44:48.894Z,15.67
2017-02-24T00:45:58.643Z,15.62
2017-02-24T00:47:08.925Z,15.67
2017-02-24T00:48:18.267Z,15.69
2017-02-24T00:49:27.603Z,15.72
2017-02-24T00:50:36.929Z,15.69
2017-02-24T00:51:46.707Z,15.72
2017-02-24T00:52:56.519Z,15.78
2017-02-24T00:54:06.303Z,15.75
2017-02-24T00:55:16.056Z,15.75
2017-02-24T00:56:25.809Z,15.76
2017-02-24T00:57:35.996Z,15.72
2017-02-24T00:58:45.361Z,15.82
2017-02-24T00:59:54.686Z,15.82
2017-02-24T01:01:04.016Z,15.76
2017-02-24T01:02:13.353Z,15.8
2017-02-24T01:03:23.114Z,15.74
2017-02-24T01:04:32.927Z,15.75
2017-02-24T01:05:42.250Z,15.84
2017-02-24T01:06:52.013Z,15.8
2017-02-24T01:08:01.331Z,15.82
2017-02-24T01:09:11.091Z,15.82
2017-02-24T01:10:20.469Z,15.76
2017-02-24T01:11:29.786Z,15.78
2017-02-24T01:12:39.137Z,15.78
2017-02-24T01:13:48.476Z,15.83
2017-02-24T01:14:58.237Z,15.78
2017-02-24T01:16:07.621Z,15.82
2017-02-24T01:17:17.816Z,15.82
2017-02-24T01:18:27.605Z,15.87
2017-02-24T01:19:37.378Z,15.86
2017-02-24T01:20:46.691Z,15.8
2017-02-24T01:21:56.529Z,15.86
2017-02-24T01:23:06.281Z,15.8
2017-02-24T01:24:15.603Z,15.9
2017-02-24T01:25:24.928Z,15.9
2017-02-24T01:26:34.269Z,15.87
2017-02-24T01:27:44.078Z,15.86
2017-02-24T01:28:53.399Z,15.9
2017-02-24T01:30:02.733Z,15.92
2017-02-24T01:31:12.086Z,15.9
2017-02-24T01:32:21.862Z,15.89
2017-02-24T01:33:31.685Z,15.9
2017-02-24T01:34:41.013Z,15.89
2017-02-24T01:35:50.337Z,15.86
2017-02-24T01:37:00.545Z,15.83
2017-02-24T01:38:09.869Z,15.78
2017-02-24T01:39:19.257Z,15.87
2017-02-24T01:40:28.579Z,15.89
2017-02-24T01:41:37.901Z,15.82
2017-02-24T01:42:47.262Z,15.9
2017-02-24T01:43:56.590Z,15.82
2017-02-24T01:45:06.604Z,15.87
2017-02-24T01:46:15.921Z,15.87
2017-02-24T01:47:25.234Z,15.8
2017-02-24T01:48:34.551Z,15.89
2017-02-24T01:49:43.876Z,15.83
2017-02-24T01:50:53.682Z,15.84
2017-02-24T01:52:03.024Z,15.82
2017-02-24T01:53:12.810Z,15.87
2017-02-24T01:54:22.572Z,15.87
2017-02-24T01:55:32.794Z,15.9
2017-02-24T01:56:42.623Z,15.8
2017-02-24T01:57:51.944Z,15.84
2017-02-24T01:59:01.292Z,15.89
2017-02-24T02:00:11.491Z,15.84
2017-02-24T02:01:20.804Z,15.82
2017-02-24T02:02:31.068Z,15.82
2017-02-24T02:03:40.818Z,15.8
2017-02-24T02:04:51.035Z,15.83
2017-02-24T02:06:00.361Z,15.78
2017-02-24T02:07:09.686Z,15.8
2017-02-24T02:08:19.483Z,15.78
2017-02-24T02:09:29.244Z,15.83
2017-02-24T02:10:38.564Z,15.83
2017-02-24T02:11:48.322Z,15.87
2017-02-24T02:12:58.127Z,15.84
2017-02-24T02:14:07.499Z,15.83
2017-02-24T02:15:16.834Z,15.87
2017-02-24T02:16:26.595Z,15.72
2017-02-24T02:17:35.919Z,15.78
2017-02-24T02:18:45.233Z,15.76
2017-02-24T02:19:54.598Z,15.89
2017-02-24T02:21:03.943Z,15.86
2017-02-24T02:22:13.255Z,15.74
2017-02-24T02:23:23.906Z,15.83
2017-02-24T02:24:33.231Z,15.74
2017-02-24T02:25:42.606Z,15.83
2017-02-24T02:26:52.837Z,15.8
2017-02-24T02:28:02.145Z,15.76
2017-02-24T02:29:12.794Z,15.78
2017-02-24T02:30:22.171Z,15.82
2017-02-24T02:31:31.970Z,15.78
2017-02-24T02:32:41.309Z,15.8
2017-02-24T02:33:51.512Z,15.83
2017-02-24T02:35:00.836Z,15.87
2017-02-24T02:36:10.591Z,15.75
2017-02-24T02:37:21.273Z,15.8
2017-02-24T02:38:31.047Z,15.78
2017-02-24T02:39:40.790Z,15.78
2017-02-24T02:40:50.566Z,15.78
2017-02-24T02:42:00.328Z,15.74
2017-02-24T02:43:09.701Z,15.83
2017-02-24T02:44:19.463Z,15.75
2017-02-24T02:45:28.776Z,15.8
2017-02-24T02:46:38.080Z,15.83
2017-02-24T02:47:47.414Z,15.82
2017-02-24T02:48:57.227Z,15.74
2017-02-24T02:50:06.552Z,15.72
2017-02-24T02:51:16.758Z,15.78
2017-02-24T02:52:26.090Z,15.75
2017-02-24T02:53:36.280Z,15.72
2017-02-24T02:54:45.657Z,15.75
2017-02-24T02:55:55.882Z,15.75
2017-02-24T02:57:05.639Z,15.72
2017-02-24T02:58:14.972Z,15.75
2017-02-24T02:59:24.736Z,15.71
2017-02-24T03:00:34.978Z,15.71
2017-02-24T03:01:44.298Z,15.74
2017-02-24T03:02:53.620Z,15.69
2017-02-24T03:04:02.946Z,15.72
2017-02-24T03:05:12.275Z,15.75
2017-02-24T03:06:21.664Z,15.72
2017-02-24T03:07:31.438Z,15.68
2017-02-24T03:08:41.203Z,15.67
2017-02-24T03:09:50.960Z,15.69
2017-02-24T03:11:00.717Z,15.68
2017-02-24T03:12:10.080Z,15.68
2017-02-24T03:13:19.407Z,15.68
2017-02-24T03:14:28.736Z,15.67
2017-02-24T03:15:38.929Z,15.65
2017-02-24T03:16:48.683Z,15.65
2017-02-24T03:17:58.480Z,15.62
2017-02-24T03:19:08.663Z,15.74
2017-02-24T03:20:18.426Z,15.68
2017-02-24T03:21:28.204Z,15.64
2017-02-24T03:22:37.524Z,15.68
2017-02-24T03:23:46.928Z,15.64
2017-02-24T03:24:57.158Z,15.68
2017-02-24T03:26:06.907Z,15.65
2017-02-24T03:27:16.665Z,15.67
2017-02-24T03:28:26.846Z,15.67
2017-02-24T03:29:36.244Z,15.65
2017-02-24T03:30:46.424Z,15.6
2017-02-24T03:31:56.622Z,15.62
2017-02-24T03:33:06.819Z,15.64
2017-02-24T03:34:17.460Z,15.64
2017-02-24T03:35:26.821Z,15.67
2017-02-24T03:36:37.442Z,15.67
2017-02-24T03:37:47.191Z,15.67
2017-02-24T03:38:56.940Z,15.65
2017-02-24T03:40:06.695Z,15.67
2017-02-24T03:41:16.950Z,15.67
2017-02-24T03:42:27.139Z,15.64
2017-02-24T03:43:36.916Z,15.65
2017-02-24T03:44:47.099Z,15.49
2017-02-24T03:45:57.270Z,15.51
2017-02-24T03:47:06.627Z,15.56
2017-02-24T03:48:16.400Z,15.53
2017-02-24T03:49:26.165Z,15.53
2017-02-24T03:50:36.810Z,15.51
2017-02-24T03:51:46.142Z,15.6
2017-02-24T03:52:56.371Z,15.51
2017-02-24T03:54:06.565Z,15.46
2017-02-24T03:55:15.946Z,15.57
2017-02-24T03:56:26.135Z,15.57
2017-02-24T03:57:35.903Z,15.57
2017-02-24T03:58:45.270Z,15.53
2017-02-24T03:59:54.591Z,15.59
2017-02-24T04:01:05.216Z,15.59
2017-02-24T04:02:14.549Z,15.51
2017-02-24T04:03:24.316Z,15.53
2017-02-24T04:04:34.557Z,15.56
2017-02-24T04:05:44.318Z,15.59
2017-02-24T04:06:54.527Z,15.56
2017-02-24T04:08:04.306Z,15.41
2017-02-24T04:09:14.501Z,15.49
2017-02-24T04:10:24.340Z,15.53
2017-02-24T04:11:33.697Z,15.5
2017-02-24T04:12:43.025Z,15.49
2017-02-24T04:13:53.215Z,15.53
2017-02-24T04:15:02.972Z,15.49
2017-02-24T04:16:12.364Z,15.41
2017-02-24T04:17:22.569Z,15.5
2017-02-24T04:18:31.910Z,15.44
2017-02-24T04:19:42.104Z,15.41
2017-02-24T04:20:52.297Z,15.41
2017-02-24T04:22:01.866Z,15.41
2017-02-24T04:23:12.488Z,15.44
2017-02-24T04:24:21.816Z,15.41
2017-02-24T04:25:31.574Z,15.41
2017-02-24T04:26:40.883Z,15.47
2017-02-24T04:27:50.684Z,15.47
2017-02-24T04:28:59.993Z,15.47
2017-02-24T04:30:09.746Z,15.41
2017-02-24T04:31:19.063Z,15.41
2017-02-24T04:32:28.371Z,15.35
2017-02-24T04:33:38.190Z,15.44
2017-02-24T04:34:47.494Z,15.41
2017-02-24T04:35:56.816Z,15.44
2017-02-24T04:37:06.997Z,15.38
2017-02-24T04:38:16.313Z,15.41
2017-02-24T04:39:26.588Z,15.39
2017-02-24T04:40:35.893Z,15.44
2017-02-24T04:41:45.203Z,15.35
2017-02-24T04:42:54.983Z,15.41
2017-02-24T04:44:05.196Z,15.43
2017-02-24T04:45:15.458Z,15.41
2017-02-24T04:46:25.195Z,15.43
2017-02-24T04:47:34.516Z,15.34
2017-02-24T04:48:44.281Z,15.39
2017-02-24T04:49:53.590Z,15.39
2017-02-24T04:51:03.411Z,15.34
2017-02-24T04:52:12.760Z,15.39
2017-02-24T04:53:22.963Z,15.31
2017-02-24T04:54:32.715Z,15.28
2017-02-24T04:55:42.895Z,15.28
2017-02-24T04:56:53.145Z,15.28
2017-02-24T04:58:02.455Z,15.28
2017-02-24T04:59:12.643Z,15.27
2017-02-24T05:00:22.408Z,15.29
2017-02-24T05:01:32.198Z,15.29
2017-02-24T05:02:41.560Z,15.35
2017-02-24T05:03:50.877Z,15.35
2017-02-24T05:05:00.631Z,15.31
2017-02-24T05:06:09.959Z,15.35
2017-02-24T05:07:19.281Z,15.34
2017-02-24T05:08:29.094Z,15.31
2017-02-24T05:09:38.835Z,15.27
2017-02-24T05:10:48.596Z,15.34
2017-02-24T05:11:58.339Z,15.31
2017-02-24T05:13:08.965Z,15.29
2017-02-24T05:14:19.220Z,15.35
2017-02-24T05:15:28.979Z,15.32
2017-02-24T05:16:39.185Z,15.28
2017-02-24T05:17:48.490Z,15.28
2017-02-24T05:18:58.261Z,15.28
2017-02-24T05:20:08.054Z,15.31
2017-02-24T05:21:18.287Z,15.31
2017-02-24T05:22:28.480Z,15.32
2017-02-24T05:23:38.234Z,15.27
2017-02-24T05:24:48.455Z,15.23
2017-02-24T05:25:58.260Z,15.27
2017-02-24T05:27:08.461Z,15.2
2017-02-24T05:28:17.765Z,15.28
2017-02-24T05:29:27.092Z,15.17
2017-02-24T05:30:36.833Z,15.21
2017-02-24T05:31:46.210Z,15.28
2017-02-24T05:32:55.963Z,15.19
2017-02-24T05:34:05.292Z,15.2
2017-02-24T05:35:14.605Z,15.2
2017-02-24T05:36:24.814Z,15.23
2017-02-24T05:37:34.183Z,15.14
2017-02-24T05:38:43.949Z,15.17
2017-02-24T05:39:53.709Z,15.19
2017-02-24T05:41:03.886Z,15.21
2017-02-24T05:42:13.627Z,15.21
2017-02-24T05:43:23.869Z,15.19
2017-02-24T05:44:33.618Z,15.17
2017-02-24T05:45:44.249Z,15.13
2017-02-24T05:46:54.425Z,15.2
2017-02-24T05:48:04.170Z,15.2
2017-02-24T05:49:13.995Z,15.13
2017-02-24T05:50:24.201Z,15.23
2017-02-24T05:51:33.954Z,15.19
2017-02-24T05:52:44.130Z,15.16
2017-02-24T05:53:53.884Z,15.14
2017-02-24T05:55:04.165Z,15.14
2017-02-24T05:56:13.507Z,15.14
2017-02-24T05:57:23.732Z,15.16
2017-02-24T05:58:33.931Z,15.19
2017-02-24T05:59:44.164Z,15.14
2017-02-24T06:00:53.961Z,15.25
2017-02-24T06:02:03.714Z,15.17
2017-02-24T06:03:13.482Z,15.16
2017-02-24T06:04:22.811Z,15.16
2017-02-24T06:05:32.998Z,15.19
2017-02-24T06:06:42.391Z,15.16
2017-02-24T06:07:51.740Z,15.2
2017-02-24T06:09:01.072Z,15.13
2017-02-24T06:10:11.277Z,15.17
2017-02-24T06:11:21.472Z,15.19
2017-02-24T06:12:31.298Z,15.17
2017-02-24T06:13:40.618Z,15.14
2017-02-24T06:14:51.243Z,15.16
2017-02-24T06:16:01.017Z,15.13
2017-02-24T06:17:10.781Z,15.06
2017-02-24T06:18:20.574Z,15.1
2017-02-24T06:19:30.761Z,15.16
2017-02-24T06:20:40.098Z,15.17
2017-02-24T06:21:49.855Z,15.17
2017-02-24T06:22:59.616Z,15.21
2017-02-24T06:24:09.006Z,15.16
2017-02-24T06:25:18.755Z,15.21
2017-02-24T06:26:28.111Z,15.21
2017-02-24T06:27:37.865Z,15.14
2017-02-24T06:28:47.630Z,15.2
2017-02-24T06:29:57.436Z,15.17
2017-02-24T06:31:07.183Z,15.19
2017-02-24T06:32:16.938Z,15.2
2017-02-24T06:33:27.127Z,15.2
2017-02-24T06:34:36.491Z,15.1
2017-02-24T06:35:46.382Z,15.16
2017-02-24T06:36:56.147Z,15.19
2017-02-24T06:38:05.964Z,15.19
2017-02-24T06:39:15.287Z,15.07
2017-02-24T06:40:25.073Z,15.11
2017-02-24T06:41:35.363Z,15.16
2017-02-24T06:42:44.705Z,15.1
2017-02-24T06:43:55.354Z,15.1
2017-02-24T06:45:05.098Z,15.1
2017-02-24T06:46:15.725Z,15.16
2017-02-24T06:47:25.514Z,15.06
2017-02-24T06:48:35.723Z,15.16
2017-02-24T06:49:45.035Z,15.09
2017-02-24T06:50:55.241Z,15.17
2017-02-24T06:52:05.446Z,15.19
2017-02-24T06:53:15.239Z,15.17
2017-02-24T06:54:24.985Z,15.2
2017-02-24T06:55:34.751Z,15.16
2017-02-24T06:56:44.072Z,15.17
2017-02-24T06:57:53.417Z,15.19
2017-02-24T06:59:03.763Z,15.19
2017-02-24T07:00:13.548Z,15.17
2017-02-24T07:01:22.885Z,15.14
2017-02-24T07:02:32.655Z,15.23
2017-02-24T07:03:41.974Z,15.28
2017-02-24T07:04:51.343Z,15.14
2017-02-24T07:06:01.986Z,15.16
2017-02-24T07:07:11.775Z,15.27
2017-02-24T07:08:21.117Z,15.17
2017-02-24T07:09:30.440Z,15.16
2017-02-24T07:10:40.671Z,15.14
2017-02-24T07:11:50.427Z,15.2
2017-02-24T07:12:59.744Z,15.17
2017-02-24T07:14:09.066Z,15.2
2017-02-24T07:15:19.276Z,15.2
2017-02-24T07:16:28.657Z,15.1
2017-02-24T07:17:39.294Z,15.17
2017-02-24T07:18:48.599Z,15.21
2017-02-24T07:19:57.919Z,15.14
2017-02-24T07:21:08.978Z,15.21
2017-02-24T07:22:18.789Z,15.23
2017-02-24T07:23:28.532Z,15.21
2017-02-24T07:24:37.848Z,15.31
2017-02-24T07:25:48.043Z,15.31
2017-02-24T07:26:58.244Z,15.27
2017-02-24T07:28:07.609Z,15.35
2017-02-24T07:29:16.927Z,15.31
2017-02-24T07:30:27.654Z,15.29
2017-02-24T07:31:37.833Z,15.34
2017-02-24T07:32:47.158Z,15.29
2017-02-24T07:33:56.503Z,15.27
2017-02-24T07:35:06.683Z,15.25
2017-02-24T07:36:16.876Z,15.27
2017-02-24T07:37:26.641Z,15.32
2017-02-24T07:38:36.860Z,15.32
2017-02-24T07:39:46.221Z,15.28
2017-02-24T07:40:56.011Z,15.31
2017-02-24T07:42:05.746Z,15.31
2017-02-24T07:43:15.515Z,15.27
2017-02-24T07:44:24.830Z,15.29
2017-02-24T07:45:34.619Z,15.28
2017-02-24T07:46:43.999Z,15.27
2017-02-24T07:47:53.822Z,15.35
2017-02-24T07:49:03.155Z,15.43
2017-02-24T07:50:12.920Z,15.38
2017-02-24T07:51:27.261Z,15.44
2017-02-24T07:52:39.474Z,15.43
2017-02-24T07:53:49.663Z,15.44
2017-02-24T07:54:59.429Z,15.41
2017-02-24T07:56:08.762Z,15.36
2017-02-24T07:57:18.128Z,15.43
2017-02-24T07:58:27.888Z,15.36
2017-02-24T07:59:37.668Z,15.44
2017-02-24T08:00:47.870Z,15.53
2017-02-24T08:01:57.188Z,15.51
2017-02-24T08:03:06.580Z,15.47
2017-02-24T08:04:16.357Z,15.54
2017-02-24T08:05:26.544Z,15.53
2017-02-24T08:06:35.856Z,15.53
2017-02-24T08:07:45.606Z,15.51
2017-02-24T08:08:56.290Z,15.44
2017-02-24T08:10:06.507Z,15.44
2017-02-24T08:11:16.265Z,15.47
2017-02-24T08:12:25.594Z,15.6
2017-02-24T08:13:34.918Z,15.49
2017-02-24T08:14:44.721Z,15.64
2017-02-24T08:15:54.506Z,15.53
2017-02-24T08:17:04.264Z,15.56
2017-02-24T08:18:14.475Z,15.67
2017-02-24T08:19:24.246Z,15.59
2017-02-24T08:20:34.061Z,15.59
2017-02-24T08:21:44.692Z,15.65
2017-02-24T08:22:54.445Z,15.62
2017-02-24T08:24:03.763Z,15.62
2017-02-24T08:25:13.520Z,15.62
2017-02-24T08:26:22.888Z,15.68
2017-02-24T08:27:33.094Z,15.68
2017-02-24T08:28:42.412Z,15.68
2017-02-24T08:29:51.732Z,15.69
2017-02-24T08:31:01.473Z,15.71
2017-02-24T08:32:10.874Z,15.69
2017-02-24T08:33:20.218Z,15.68
2017-02-24T08:34:30.409Z,15.68
2017-02-24T08:35:39.722Z,15.69
2017-02-24T08:36:49.475Z,15.75
2017-02-24T08:37:59.280Z,15.78
2017-02-24T08:39:08.594Z,15.84
2017-02-24T08:40:17.923Z,15.69
2017-02-24T08:41:27.676Z,15.78
2017-02-24T08:42:36.981Z,15.75
2017-02-24T08:43:47.227Z,15.68
2017-02-24T08:44:56.980Z,15.8
2017-02-24T08:46:07.621Z,15.76
2017-02-24T08:47:16.946Z,15.8
2017-02-24T08:48:27.151Z,15.8
2017-02-24T08:49:36.540Z,15.75
2017-02-24T08:50:45.845Z,15.72
2017-02-24T08:51:55.626Z,15.78
2017-02-24T08:53:05.806Z,15.89
2017-02-24T08:54:15.564Z,15.84
2017-02-24T08:55:25.936Z,15.83
2017-02-24T08:56:35.699Z,15.84
2017-02-24T08:57:45.888Z,15.75
2017-02-24T08:58:55.642Z,15.87
2017-02-24T09:00:04.979Z,15.75
2017-02-24T09:01:14.350Z,15.72
2017-02-24T09:02:24.117Z,15.78
2017-02-24T09:03:33.894Z,15.83
2017-02-24T09:04:43.655Z,15.78
2017-02-24T09:05:53.408Z,15.83
2017-02-24T09:07:02.798Z,15.76
2017-02-24T09:08:12.133Z,15.72
2017-02-24T09:09:21.462Z,15.83
2017-02-24T09:10:32.093Z,15.75
2017-02-24T09:11:41.406Z,15.8
2017-02-24T09:12:52.071Z,15.82
2017-02-24T09:14:01.832Z,15.89
2017-02-24T09:15:11.594Z,15.83
2017-02-24T09:16:21.790Z,16.01
2017-02-24T09:17:31.580Z,15.96
2017-02-24T09:18:40.937Z,16.02
2017-02-24T09:19:50.702Z,16.05
2017-02-24T09:21:00.020Z,16.08
2017-02-24T09:22:09.813Z,16.08
2017-02-24T09:23:19.190Z,16.05
2017-02-24T09:24:28.993Z,16.15
2017-02-24T09:25:38.316Z,16.15
2017-02-24T09:26:47.636Z,16.2
2017-02-24T09:27:57.382Z,16.2
2017-02-24T09:29:06.715Z,16.27
2017-02-24T09:30:16.081Z,16.34
2017-02-24T09:31:26.278Z,16.3
2017-02-24T09:32:36.055Z,16.34
2017-02-24T09:33:45.815Z,16.27
2017-02-24T09:34:55.566Z,16.35
2017-02-24T09:36:05.381Z,16.33
2017-02-24T09:37:15.584Z,16.34
2017-02-24T09:38:26.228Z,16.42
2017-02-24T09:39:35.552Z,16.43
2017-02-24T09:40:46.174Z,16.41
2017-02-24T09:41:56.869Z,16.48
2017-02-24T09:43:06.645Z,16.53
2017-02-24T09:44:15.983Z,16.56
2017-02-24T09:45:26.166Z,16.48
2017-02-24T09:46:35.917Z,16.46
2017-02-24T09:47:45.298Z,16.53
2017-02-24T09:48:54.618Z,16.63
2017-02-24T09:50:04.371Z,16.56
2017-02-24T09:51:13.702Z,16.61
2017-02-24T09:52:23.493Z,16.64
2017-02-24T09:53:33.315Z,16.68
2017-02-24T09:54:43.077Z,16.63
2017-02-24T09:55:53.686Z,16.6
2017-02-24T09:57:03.442Z,16.6
2017-02-24T09:58:14.072Z,16.63
2017-02-24T09:59:23.893Z,16.75
2017-02-24T10:00:33.202Z,16.75
2017-02-24T10:01:43.392Z,16.83
2017-02-24T10:02:53.201Z,16.71
2017-02-24T10:04:02.942Z,16.79
2017-02-24T10:05:12.759Z,16.68
2017-02-24T10:06:22.082Z,16.75
2017-02-24T10:07:32.270Z,16.73
2017-02-24T10:08:41.606Z,16.79
2017-02-24T10:09:51.352Z,16.73
2017-02-24T10:11:00.861Z,16.76
2017-02-24T10:12:10.624Z,16.7
2017-02-24T10:13:20.811Z,16.78
2017-02-24T10:14:30.560Z,16.79
2017-02-24T10:15:39.881Z,16.81
2017-02-24T10:16:49.674Z,16.89
2017-02-24T10:17:58.980Z,17
2017-02-24T10:19:08.735Z,16.96
2017-02-24T10:20:18.502Z,16.97
2017-02-24T10:21:28.256Z,17.11
2017-02-24T10:22:38.066Z,17.01
2017-02-24T10:23:48.260Z,17.12
2017-02-24T10:24:58.029Z,17.18
2017-02-24T10:26:07.815Z,17.28
2017-02-24T10:27:17.128Z,17.31
2017-02-24T10:28:26.499Z,17.38
2017-02-24T10:29:36.259Z,17.44
2017-02-24T10:30:45.580Z,17.49
2017-02-24T10:31:55.339Z,17.48
2017-02-24T10:33:04.671Z,17.49
2017-02-24T10:34:14.916Z,17.44
2017-02-24T10:35:24.237Z,17.44
2017-02-24T10:36:33.558Z,17.58
2017-02-24T10:37:43.762Z,17.63
2017-02-24T10:38:53.528Z,17.7
2017-02-24T10:40:03.369Z,17.82
2017-02-24T10:41:13.581Z,17.93
2017-02-24T10:42:24.236Z,17.9
2017-02-24T10:43:33.557Z,18.1
2017-02-24T10:44:42.906Z,18.03
2017-02-24T10:45:53.165Z,18.08
2017-02-24T10:47:02.472Z,18.15
2017-02-24T10:48:12.701Z,18.23
2017-02-24T10:49:22.470Z,18.36
2017-02-24T10:50:32.252Z,18.47
2017-02-24T10:51:42.047Z,18.44
2017-02-24T10:52:51.386Z,18.51
2017-02-24T10:54:01.589Z,18.41
2017-02-24T10:55:11.784Z,18.44
2017-02-24T10:56:21.097Z,18.55
2017-02-24T10:57:30.452Z,18.58
2017-02-24T10:58:40.206Z,18.52
2017-02-24T10:59:50.413Z,18.66
2017-02-24T11:00:59.734Z,18.63
2017-02-24T11:02:09.503Z,18.55
2017-02-24T11:03:19.309Z,18.55
2017-02-24T11:04:28.622Z,18.55
2017-02-24T11:05:38.379Z,18.66
2017-02-24T11:06:47.720Z,18.55
2017-02-24T11:07:57.979Z,18.55
2017-02-24T11:09:08.225Z,18.57
2017-02-24T11:10:18.414Z,18.55
2017-02-24T11:11:27.755Z,18.67
2017-02-24T11:12:37.084Z,18.62
2017-02-24T11:13:47.727Z,18.6
2017-02-24T11:14:57.580Z,18.54
2017-02-24T11:16:06.948Z,18.54
2017-02-24T11:17:16.285Z,18.42
2017-02-24T11:18:26.031Z,18.39
2017-02-24T11:19:35.375Z,18.35
2017-02-24T11:20:45.346Z,18.41
2017-02-24T11:21:55.103Z,18.2
2017-02-24T11:23:04.869Z,18.17
2017-02-24T11:24:14.636Z,18.08
2017-02-24T11:25:24.383Z,18.02
2017-02-24T11:26:34.288Z,18.1
2017-02-24T11:27:44.493Z,18.02
2017-02-24T11:28:53.846Z,18.03
2017-02-24T11:30:03.620Z,17.99
2017-02-24T11:31:13.375Z,17.87
2017-02-24T11:32:23.209Z,17.93
2017-02-24T11:33:33.005Z,17.89
2017-02-24T11:34:42.336Z,17.87
2017-02-24T11:35:52.533Z,17.95
2017-02-24T11:37:02.728Z,17.87
2017-02-24T11:38:12.112Z,17.9
2017-02-24T11:39:21.893Z,17.92
2017-02-24T11:40:31.658Z,17.99
2017-02-24T11:41:41.439Z,18.03
2017-02-24T11:42:51.188Z,18.05
2017-02-24T11:44:00.545Z,18.21
2017-02-24T11:45:09.883Z,18.29
2017-02-24T11:46:19.634Z,18.39
2017-02-24T11:47:29.836Z,18.45
2017-02-24T11:48:39.578Z,18.5
2017-02-24T11:49:49.385Z,18.5
2017-02-24T11:50:59.166Z,18.42
2017-02-24T11:52:08.908Z,18.55
2017-02-24T11:53:19.126Z,18.52
2017-02-24T11:54:28.896Z,18.51
2017-02-24T11:55:39.136Z,18.45
2017-02-24T11:56:49.346Z,18.45
2017-02-24T11:57:59.136Z,18.41
2017-02-24T11:59:09.341Z,18.32
2017-02-24T12:00:19.513Z,18.21
2017-02-24T12:01:29.346Z,18.15
2017-02-24T12:02:39.100Z,18.18
2017-02-24T12:03:48.437Z,18.12
2017-02-24T12:04:58.646Z,18.14
2017-02-24T12:06:07.954Z,18.08
2017-02-24T12:07:18.205Z,18.08
2017-02-24T12:08:27.945Z,18.11
2017-02-24T12:09:38.147Z,17.96
2017-02-24T12:10:48.359Z,17.99
2017-02-24T12:11:58.989Z,18.03
2017-02-24T12:13:09.239Z,18.08
2017-02-24T12:14:18.998Z,18.21
2017-02-24T12:15:29.177Z,18.35
2017-02-24T12:16:38.946Z,18.44
2017-02-24T12:17:49.147Z,18.52
2017-02-24T12:18:58.537Z,18.62
2017-02-24T12:20:07.854Z,18.75
2017-02-24T12:21:17.619Z,18.78
2017-02-24T12:22:27.830Z,18.84
2017-02-24T12:23:38.461Z,18.82
2017-02-24T12:24:47.862Z,18.92
2017-02-24T12:25:57.623Z,18.92
2017-02-24T12:27:07.373Z,18.95
2017-02-24T12:28:17.144Z,18.95
2017-02-24T12:29:26.918Z,19.07
2017-02-24T12:30:36.756Z,19.08
2017-02-24T12:31:46.957Z,19.19
2017-02-24T12:32:56.285Z,19.18
2017-02-24T12:34:06.494Z,19.28
2017-02-24T12:35:17.119Z,19.36
2017-02-24T12:36:26.954Z,19.36
2017-02-24T12:37:37.577Z,19.28
2017-02-24T12:38:48.192Z,19.25
2017-02-24T12:39:57.517Z,19.33
2017-02-24T12:41:06.877Z,19.33
2017-02-24T12:42:16.696Z,19.28
2017-02-24T12:43:26.477Z,19.31
2017-02-24T12:44:36.236Z,19.29
2017-02-24T12:45:45.587Z,19.33
2017-02-24T12:46:55.349Z,19.32
2017-02-24T12:48:05.594Z,19.5
2017-02-24T12:49:14.922Z,19.56
2017-02-24T12:50:25.553Z,19.62
2017-02-24T12:51:34.865Z,19.73
2017-02-24T12:52:45.441Z,19.86
2017-02-24T12:53:55.855Z,19.95
2017-02-24T12:55:05.187Z,19.83
2017-02-24T12:56:15.406Z,19.99
2017-02-24T12:57:24.732Z,19.88
2017-02-24T12:58:35.238Z,20.01
2017-02-24T12:59:45.911Z,19.95
2017-02-24T13:00:56.949Z,19.99
2017-02-24T13:02:08.150Z,19.91
2017-02-24T13:03:19.583Z,19.99
2017-02-24T13:04:30.097Z,19.98
2017-02-24T13:05:40.281Z,20.03
2017-02-24T13:06:52.095Z,19.99
2017-02-24T13:08:03.068Z,20.03
2017-02-24T13:09:13.038Z,19.96
2017-02-24T13:10:23.220Z,20.11
2017-02-24T13:11:33.468Z,20.03
2017-02-24T13:12:43.238Z,20.02
2017-02-24T13:13:52.576Z,19.94
2017-02-24T13:15:01.896Z,20.03
2017-02-24T13:16:12.546Z,19.98
2017-02-24T13:17:22.551Z,19.98
2017-02-24T13:18:32.325Z,20.06
2017-02-24T13:19:42.536Z,19.84
2017-02-24T13:20:52.291Z,19.98
2017-02-24T13:22:02.248Z,19.91
2017-02-24T13:23:12.127Z,19.88
2017-02-24T13:24:21.450Z,19.91
2017-02-24T13:25:30.771Z,19.99
2017-02-24T13:26:40.087Z,19.96
2017-02-24T13:27:49.410Z,19.99
2017-02-24T13:28:59.651Z,19.95
2017-02-24T13:30:08.976Z,19.92
2017-02-24T13:31:18.737Z,19.96
2017-02-24T13:32:28.509Z,20.02
2017-02-24T13:33:39.127Z,19.91
2017-02-24T13:34:48.645Z,19.99
2017-02-24T13:35:57.966Z,20.08
2017-02-24T13:37:07.723Z,20.13
2017-02-24T13:38:17.943Z,20.18
2017-02-24T13:39:28.137Z,20.18
2017-02-24T13:40:37.962Z,20.11
2017-02-24T13:41:47.732Z,20.13
2017-02-24T13:42:57.509Z,20.02
2017-02-24T13:44:07.282Z,20.14
2017-02-24T13:45:16.747Z,20.2
2017-02-24T13:46:27.216Z,20.14
2017-02-24T13:47:37.113Z,20.21
2017-02-24T13:48:47.342Z,20.31
2017-02-24T13:49:57.135Z,20.24
2017-02-24T13:51:06.917Z,20.35
2017-02-24T13:52:16.288Z,20.29
2017-02-24T13:53:26.559Z,20.31
2017-02-24T13:54:36.144Z,20.26
2017-02-24T13:55:45.470Z,20.2
2017-02-24T13:56:55.297Z,20.17
2017-02-24T13:58:05.706Z,20.11
2017-02-24T13:59:15.465Z,19.96
2017-02-24T14:00:25.214Z,20.03
2017-02-24T14:01:34.539Z,19.91
2017-02-24T14:02:44.305Z,19.83
2017-02-24T14:03:54.410Z,19.81
2017-02-24T14:05:04.951Z,19.76
2017-02-24T14:06:15.175Z,19.74
2017-02-24T14:07:25.805Z,19.62
2017-02-24T14:08:35.121Z,19.48
2017-02-24T14:09:44.931Z,19.5
2017-02-24T14:10:54.744Z,19.37
2017-02-24T14:12:05.118Z,19.39
2017-02-24T14:13:14.882Z,19.28
2017-02-24T14:14:24.199Z,19.28
2017-02-24T14:15:34.046Z,19.28
2017-02-24T14:16:43.794Z,19.23
2017-02-24T14:17:53.992Z,19.11
2017-02-24T14:19:03.737Z,19.06
2017-02-24T14:20:13.481Z,19.02
2017-02-24T14:21:23.275Z,19.04
2017-02-24T14:22:33.032Z,19.04
2017-02-24T14:23:42.802Z,18.9
2017-02-24T14:24:52.119Z,18.9
2017-02-24T14:26:02.335Z,18.85
2017-02-24T14:27:12.585Z,18.8
2017-02-24T14:28:21.893Z,18.84
2017-02-24T14:29:31.688Z,18.78
2017-02-24T14:30:41.013Z,18.67
2017-02-24T14:31:50.770Z,18.66
2017-02-24T14:33:00.572Z,18.65
2017-02-24T14:34:09.887Z,18.62
2017-02-24T14:35:20.518Z,18.54
2017-02-24T14:36:29.836Z,18.55
2017-02-24T14:37:39.597Z,18.52
2017-02-24T14:38:50.301Z,18.51
2017-02-24T14:39:59.639Z,18.52
2017-02-24T14:41:09.408Z,18.35
2017-02-24T14:42:18.738Z,18.47
2017-02-24T14:43:28.519Z,18.45
2017-02-24T14:44:38.753Z,18.47
2017-02-24T14:45:48.077Z,18.37
2017-02-24T14:46:57.833Z,18.36
2017-02-24T14:48:08.034Z,18.33
2017-02-24T14:49:17.831Z,18.26
2017-02-24T14:50:28.073Z,18.23
2017-02-24T14:51:39.139Z,18.21
2017-02-24T14:52:49.332Z,18.23
2017-02-24T14:53:58.650Z,18.21
2017-02-24T14:55:07.961Z,18.23
2017-02-24T14:56:17.770Z,18.21
2017-02-24T14:57:27.508Z,18.2
2017-02-24T14:58:38.127Z,18.21
2017-02-24T14:59:47.879Z,18.23
2017-02-24T15:00:57.640Z,18.25
2017-02-24T15:02:07.873Z,18.15